createdAt,value
2022-09-28T00:03:04.682Z,0.70
2022-09-28T00:13:08.303Z,0.57
2022-09-28T00:23:09.962Z,0.40
2022-09-28T00:33:11.802Z,0.30
2022-09-28T00:43:20.946Z,0.50
2022-09-28T00:53:28.684Z,0.30
2022-09-28T01:03:30.818Z,0.20
2022-09-28T01:13:33.614Z,0.30
2022-09-28T01:23:46.745Z,0.10
2022-09-28T01:33:59.458Z,0.30
2022-09-28T01:44:06.009Z,0.30
2022-09-28T01:54:20.187Z,0.30
2022-09-28T02:04:35.270Z,0.40
2022-09-28T02:14:40.781Z,0.37
2022-09-28T02:25:11.234Z,0.40
2022-09-28T02:35:16.825Z,0.40
2022-09-28T02:45:29.933Z,0.40
2022-09-28T02:56:02.945Z,0.50
2022-09-28T03:06:11.377Z,0.40
2022-09-28T03:16:20.337Z,0.40
2022-09-28T03:26:23.951Z,1.07
2022-09-28T03:36:27.080Z,0.50
2022-09-28T03:46:28.795Z,0.60
2022-09-28T03:56:35.489Z,0.50
2022-09-28T04:06:37.430Z,0.80
2022-09-28T04:16:39.732Z,0.70
2022-09-28T04:26:45.773Z,0.80
2022-09-28T04:36:48.753Z,0.80
2022-09-28T04:46:50.678Z,0.50
2022-09-28T04:57:06.108Z,0.80
2022-09-28T05:07:07.874Z,0.87
2022-09-28T05:17:11.935Z,0.90
2022-09-28T05:27:41.819Z,1.23
2022-09-28T05:38:09.399Z,1.47
2022-09-28T05:48:11.316Z,1.50
2022-09-28T05:58:13.461Z,1.60
2022-09-28T06:08:15.427Z,1.97
2022-09-28T06:18:21.333Z,1.80
2022-09-28T06:28:39.958Z,1.60
2022-09-28T06:38:42.367Z,1.70
2022-09-28T06:48:52.532Z,1.50
2022-09-28T06:59:14.344Z,1.33
2022-09-28T07:09:31.839Z,1.80
2022-09-28T07:19:59.949Z,1.60
2022-09-28T07:30:05.656Z,1.10
2022-09-28T07:40:34.341Z,1.03
2022-09-28T07:50:39.233Z,0.80
2022-09-28T08:00:50.172Z,0.90
2022-09-28T08:10:53.283Z,1.00
2022-09-28T08:21:44.633Z,0.80
2022-09-28T08:31:48.505Z,0.70
2022-09-28T08:42:11.177Z,0.63
2022-09-28T08:52:37.719Z,0.67
2022-09-28T09:03:12.775Z,0.50
2022-09-28T09:13:20.379Z,0.57
2022-09-28T09:23:38.523Z,0.82
2022-09-28T09:33:49.383Z,0.40
2022-09-28T09:44:32.764Z,0.30
2022-09-28T09:55:30.032Z,0.30
2022-09-28T10:06:00.479Z,0.20
2022-09-28T10:16:02.820Z,0.20
2022-09-28T10:26:25.104Z,0.40
2022-09-28T10:36:28.509Z,0.20
2022-09-28T10:46:30.590Z,0.30
2022-09-28T10:56:37.536Z,0.10
2022-09-28T11:06:47.000Z,0.40
2022-09-28T11:16:48.924Z,0.30
2022-09-28T11:26:54.389Z,0.53
2022-09-28T11:37:16.535Z,0.20
2022-09-28T11:47:44.978Z,0.50
2022-09-28T11:58:01.495Z,0.40
2022-09-28T12:08:21.950Z,0.37
2022-09-28T12:18:53.146Z,0.50
2022-09-28T12:28:59.650Z,0.50
2022-09-28T12:39:27.092Z,1.33
2022-09-28T12:50:37.000Z,0.80
2022-09-28T13:00:18.653Z,0.57
2022-09-28T13:10:38.400Z,0.60
2022-09-28T13:21:10.438Z,0.60
2022-09-28T13:31:16.523Z,0.60
2022-09-28T13:41:40.518Z,0.67
2022-09-28T13:52:07.538Z,0.60
2022-09-28T14:02:41.942Z,0.73
2022-09-28T14:12:54.479Z,0.80
2022-09-28T14:23:37.988Z,0.60
2022-09-28T14:33:42.759Z,0.67
2022-09-28T14:43:44.875Z,0.80
2022-09-28T14:53:50.089Z,1.10
2022-09-28T15:03:56.663Z,0.80
2022-09-28T15:14:07.189Z,0.77
2022-09-28T15:24:31.891Z,0.80
2022-09-28T15:34:51.643Z,0.80
2022-09-28T15:45:32.053Z,0.70
2022-09-28T15:55:39.390Z,0.90
2022-09-28T16:05:42.974Z,0.97
2022-09-28T16:15:45.061Z,1.00
2022-09-28T16:25:56.747Z,0.83
2022-09-28T16:36:03.288Z,0.43
2022-09-28T16:46:09.573Z,0.70
2022-09-28T16:56:12.740Z,0.50
2022-09-28T17:06:16.954Z,0.70
2022-09-28T17:16:32.514Z,0.70
2022-09-28T17:26:39.270Z,1.57
2022-09-28T17:36:42.452Z,2.10
2022-09-28T17:46:47.658Z,3.67
2022-09-28T17:56:50.578Z,4.50
2022-09-28T18:06:52.457Z,1.20
2022-09-28T18:16:54.396Z,2.10
2022-09-28T18:26:57.365Z,1.20
2022-09-28T18:36:59.100Z,0.83
2022-09-28T18:47:02.515Z,3.00
2022-09-28T18:57:05.514Z,3.27
2022-09-28T19:07:08.454Z,3.10
2022-09-28T19:17:10.633Z,2.30
2022-09-28T19:27:12.395Z,2.17
2022-09-28T19:37:14.496Z,4.87
2022-09-28T19:47:17.482Z,2.53
2022-09-28T19:57:19.624Z,3.03
2022-09-28T20:07:21.447Z,1.73
2022-09-28T20:17:23.539Z,2.10
2022-09-28T20:27:27.053Z,1.60
2022-09-28T20:37:30.364Z,1.73
2022-09-28T20:47:32.086Z,1.30
2022-09-28T20:57:33.943Z,2.60
2022-09-28T21:07:35.481Z,2.20
2022-09-28T21:17:37.485Z,1.83
2022-09-28T21:27:46.021Z,1.33
2022-09-28T21:37:47.681Z,2.70
2022-09-28T21:47:53.007Z,4.57
2022-09-28T21:57:54.837Z,1.40
2022-09-28T22:07:56.619Z,1.23
2022-09-28T22:17:58.327Z,1.10
2022-09-28T22:28:00.113Z,1.07
2022-09-28T22:38:01.847Z,1.00
2022-09-28T22:48:03.829Z,1.03
2022-09-28T22:58:05.600Z,1.40
2022-09-28T23:08:08.168Z,1.10
2022-09-28T23:18:10.300Z,1.00
2022-09-28T23:28:12.159Z,0.90
2022-09-28T23:38:17.839Z,1.30
2022-09-28T23:48:19.572Z,1.20
2022-09-28T23:58:21.152Z,1.20
